createdAt,value
2022-09-06T00:02:21.372Z,100364.94
2022-09-06T00:04:49.938Z,100354.69
2022-09-06T00:07:17.959Z,100353.97
2022-09-06T00:09:45.830Z,100346.16
2022-09-06T00:12:13.697Z,100356.72
2022-09-06T00:14:43.108Z,100349.03
2022-09-06T00:17:11.539Z,100350.03
2022-09-06T00:19:39.527Z,100351.63
2022-09-06T00:22:07.958Z,100348.41
2022-09-06T00:24:37.144Z,100347.16
2022-09-06T00:27:05.479Z,100348.66
2022-09-06T00:29:33.981Z,100351.78
2022-09-06T00:32:04.469Z,100359.41
2022-09-06T00:34:32.695Z,100359.13
2022-09-06T00:37:00.618Z,100360.63
2022-09-06T00:39:28.779Z,100356.44
2022-09-06T00:41:56.652Z,100359.50
2022-09-06T00:44:25.015Z,100349.97
2022-09-06T00:46:55.340Z,100345.69
2022-09-06T00:49:27.584Z,100350.34
2022-09-06T00:51:59.966Z,100353.94
2022-09-06T00:54:28.769Z,100352.00
2022-09-06T00:56:58.552Z,100364.41
2022-09-06T00:59:27.243Z,100362.84
2022-09-06T01:01:55.740Z,100371.88
2022-09-06T01:04:26.581Z,100372.28
2022-09-06T01:07:07.150Z,100376.75
2022-09-06T01:09:49.273Z,100385.38
2022-09-06T01:12:31.118Z,100395.09
2022-09-06T01:15:09.334Z,100414.44
2022-09-06T01:17:52.173Z,100437.13
2022-09-06T01:20:52.588Z,100539.38
2022-09-06T01:23:53.251Z,100515.38
2022-09-06T01:27:03.540Z,100505.59
2022-09-06T01:29:37.816Z,100519.00
2022-09-06T01:32:13.380Z,100532.50
2022-09-06T01:34:45.339Z,100530.78
2022-09-06T01:37:16.822Z,100512.34
2022-09-06T01:39:44.778Z,100510.16
2022-09-06T01:42:17.806Z,100509.50
2022-09-06T01:44:53.236Z,100497.91
2022-09-06T01:47:37.589Z,100489.19
2022-09-06T01:50:21.008Z,100478.16
2022-09-06T01:53:00.743Z,100481.56
2022-09-06T01:55:33.713Z,100464.47
2022-09-06T01:58:23.332Z,100465.09
2022-09-06T02:01:01.375Z,100451.28
2022-09-06T02:03:36.374Z,100425.47
2022-09-06T02:06:08.907Z,100394.19
2022-09-06T02:08:43.342Z,100385.31
2022-09-06T02:11:14.418Z,100387.00
2022-09-06T02:13:49.489Z,100388.22
2022-09-06T02:16:23.031Z,100406.16
2022-09-06T02:18:57.521Z,100415.47
2022-09-06T02:21:31.249Z,100426.09
2022-09-06T02:24:03.018Z,100425.63
2022-09-06T02:26:35.705Z,100430.91
2022-09-06T02:29:03.826Z,100422.41
2022-09-06T02:31:36.049Z,100437.63
2022-09-06T02:34:05.375Z,100440.91
2022-09-06T02:36:33.884Z,100441.03
2022-09-06T02:39:02.091Z,100447.88
2022-09-06T02:41:34.386Z,100435.16
2022-09-06T02:44:02.359Z,100419.31
2022-09-06T02:46:30.865Z,100409.69
2022-09-06T02:49:00.278Z,100398.97
2022-09-06T02:51:28.263Z,100402.03
2022-09-06T02:53:56.836Z,100399.78
2022-09-06T02:56:24.910Z,100417.66
2022-09-06T02:58:53.030Z,100437.25
2022-09-06T03:01:20.983Z,100412.06
2022-09-06T03:03:49.024Z,100385.22
2022-09-06T03:06:18.409Z,100412.50
2022-09-06T03:08:46.346Z,100394.03
2022-09-06T03:11:14.501Z,100356.59
2022-09-06T03:13:42.471Z,100345.69
2022-09-06T03:16:10.505Z,100328.66
2022-09-06T03:18:38.381Z,100324.56
2022-09-06T03:21:06.958Z,100345.13
2022-09-06T03:23:37.418Z,100359.59
2022-09-06T03:26:05.365Z,100354.56
2022-09-06T03:28:33.421Z,100335.94
2022-09-06T03:31:01.463Z,100336.94
2022-09-06T03:33:29.466Z,100340.97
2022-09-06T03:35:59.434Z,100327.69
2022-09-06T03:38:29.233Z,100334.84
2022-09-06T03:40:59.188Z,100327.94
2022-09-06T03:43:28.587Z,100317.28
2022-09-06T03:45:58.184Z,100325.25
2022-09-06T03:48:29.174Z,100327.06
2022-09-06T03:50:58.661Z,100298.72
2022-09-06T03:53:28.750Z,100292.72
2022-09-06T03:55:59.206Z,100299.66
2022-09-06T03:58:31.550Z,100293.91
2022-09-06T04:01:05.636Z,100304.19
2022-09-06T04:03:34.368Z,100298.59
2022-09-06T04:06:02.273Z,100310.34
2022-09-06T04:08:30.558Z,100307.84
2022-09-06T04:11:00.618Z,100311.75
2022-09-06T04:13:30.313Z,100308.28
2022-09-06T04:15:58.814Z,100318.53
2022-09-06T04:18:27.347Z,100321.41
2022-09-06T04:20:57.008Z,100313.28
2022-09-06T04:23:26.206Z,100320.56
2022-09-06T04:25:55.917Z,100324.38
2022-09-06T04:28:26.591Z,100333.69
2022-09-06T04:30:55.452Z,100338.91
2022-09-06T04:33:25.824Z,100331.69
2022-09-06T04:35:54.763Z,100333.31
2022-09-06T04:38:22.764Z,100329.56
2022-09-06T04:40:51.236Z,100329.03
2022-09-06T04:43:19.389Z,100312.06
2022-09-06T04:45:48.938Z,100310.72
2022-09-06T04:48:17.119Z,100313.09
2022-09-06T04:50:45.126Z,100315.41
2022-09-06T04:53:13.607Z,100303.38
2022-09-06T04:55:41.565Z,100302.13
2022-09-06T04:58:09.705Z,100322.31
2022-09-06T05:00:38.905Z,100327.16
2022-09-06T05:03:09.843Z,100327.47
2022-09-06T05:05:37.710Z,100327.88
2022-09-06T05:08:05.580Z,100328.56
2022-09-06T05:10:33.535Z,100337.94
2022-09-06T05:13:01.439Z,100332.28
2022-09-06T05:15:29.473Z,100338.38
2022-09-06T05:18:03.975Z,100337.44
2022-09-06T05:20:33.718Z,100348.03
2022-09-06T05:23:01.750Z,100340.56
2022-09-06T05:25:30.025Z,100339.94
2022-09-06T05:27:57.974Z,100341.22
2022-09-06T05:30:25.923Z,100345.78
2022-09-06T05:32:53.943Z,100355.03
2022-09-06T05:35:21.922Z,100362.59
2022-09-06T05:37:51.291Z,100362.56
2022-09-06T05:40:19.472Z,100372.94
2022-09-06T05:42:47.395Z,100376.94
2022-09-06T05:45:15.658Z,100388.41
2022-09-06T05:47:43.779Z,100389.97
2022-09-06T05:50:12.586Z,100393.44
2022-09-06T05:52:40.720Z,100384.38
2022-09-06T05:55:11.097Z,100385.00
2022-09-06T05:57:39.109Z,100394.25
2022-09-06T06:00:08.180Z,100401.31
2022-09-06T06:02:39.870Z,100397.09
2022-09-06T06:05:08.730Z,100393.91
2022-09-06T06:07:36.734Z,100390.69
2022-09-06T06:10:05.514Z,100396.59
2022-09-06T06:12:35.392Z,100393.59
2022-09-06T06:15:05.371Z,100376.34
2022-09-06T06:17:33.362Z,100379.09
2022-09-06T06:20:01.860Z,100389.13
2022-09-06T06:22:29.840Z,100384.91
2022-09-06T06:24:57.837Z,100390.00
2022-09-06T06:27:25.734Z,100391.88
2022-09-06T06:29:55.366Z,100402.75
2022-09-06T06:32:24.690Z,100413.81
2022-09-06T06:34:52.834Z,100409.06
2022-09-06T06:37:20.814Z,100409.09
2022-09-06T06:39:48.833Z,100427.44
2022-09-06T06:42:16.800Z,100450.75
2022-09-06T06:44:53.866Z,100446.91
2022-09-06T06:47:23.367Z,100445.13
2022-09-06T06:49:52.059Z,100444.78
2022-09-06T06:52:22.060Z,100442.50
2022-09-06T06:54:50.325Z,100442.00
2022-09-06T06:57:18.745Z,100448.00
2022-09-06T06:59:46.766Z,100442.03
2022-09-06T07:02:15.780Z,100442.59
2022-09-06T07:04:45.371Z,100450.78
2022-09-06T07:12:38.056Z,100444.94
2022-09-06T07:15:06.997Z,100437.97
2022-09-06T07:17:35.726Z,100434.97
2022-09-06T07:20:13.766Z,100447.06
2022-09-06T07:22:42.715Z,100447.56
2022-09-06T07:25:14.425Z,100454.75
2022-09-06T07:30:14.859Z,100453.88
2022-09-06T07:32:42.845Z,100446.50
2022-09-06T07:35:13.901Z,100453.66
2022-09-06T07:37:42.233Z,100463.31
2022-09-06T07:40:11.726Z,100467.09
2022-09-06T07:42:40.015Z,100471.75
2022-09-06T07:45:08.903Z,100468.84
2022-09-06T07:53:15.538Z,100472.63
2022-09-06T07:55:54.334Z,100475.56
2022-09-06T07:58:22.851Z,100480.56
2022-09-06T08:00:51.543Z,100480.22
2022-09-06T08:03:20.084Z,100478.09
2022-09-06T08:11:25.065Z,100464.84
2022-09-06T08:13:55.849Z,100474.72
2022-09-06T08:16:25.468Z,100477.69
2022-09-06T08:18:54.902Z,100476.63
2022-09-06T08:21:25.443Z,100482.94
2022-09-06T08:23:58.044Z,100477.47
2022-09-06T08:26:27.407Z,100474.84
2022-09-06T08:28:57.351Z,100475.56
2022-09-06T08:31:25.683Z,100472.47
2022-09-06T08:33:54.951Z,100477.38
2022-09-06T08:36:27.406Z,100469.47
2022-09-06T08:38:56.071Z,100470.50
2022-09-06T08:41:29.420Z,100470.06
2022-09-06T08:46:56.786Z,100470.81
2022-09-06T08:49:26.777Z,100463.88
2022-09-06T08:52:23.965Z,100459.44
2022-09-06T08:54:59.979Z,100457.56
2022-09-06T08:57:53.792Z,100449.13
2022-09-06T09:00:23.147Z,100444.81
2022-09-06T09:03:04.747Z,100442.00
2022-09-06T09:05:35.604Z,100441.16
2022-09-06T09:08:16.073Z,100439.66
2022-09-06T09:10:48.448Z,100439.50
2022-09-06T09:13:26.917Z,100439.25
2022-09-06T09:15:55.150Z,100435.50
2022-09-06T09:18:26.720Z,100440.34
2022-09-06T09:20:54.842Z,100429.31
2022-09-06T09:23:24.186Z,100435.84
2022-09-06T09:25:53.870Z,100428.16
2022-09-06T09:28:25.081Z,100429.50
2022-09-06T09:30:55.519Z,100426.19
2022-09-06T09:33:29.899Z,100425.03
2022-09-06T09:36:00.064Z,100419.53
2022-09-06T09:38:31.714Z,100411.13
2022-09-06T09:41:04.026Z,100416.16
2022-09-06T09:43:37.195Z,100406.69
2022-09-06T09:46:17.426Z,100413.97
2022-09-06T09:49:00.893Z,100413.53
2022-09-06T09:51:29.595Z,100410.19
2022-09-06T09:54:00.625Z,100405.91
2022-09-06T09:56:38.578Z,100401.00
2022-09-06T09:59:16.918Z,100401.75
2022-09-06T10:01:44.870Z,100398.31
2022-09-06T10:07:13.287Z,100394.66
2022-09-06T10:09:44.534Z,100396.69
2022-09-06T10:12:19.402Z,100390.38
2022-09-06T10:14:48.690Z,100394.47
2022-09-06T10:17:21.805Z,100391.06
2022-09-06T10:19:49.883Z,100391.91
2022-09-06T10:22:27.411Z,100390.09
2022-09-06T10:25:34.625Z,100392.53
2022-09-06T10:28:25.684Z,100392.22
2022-09-06T10:31:03.571Z,100387.88
2022-09-06T10:33:46.864Z,100391.22
2022-09-06T10:36:18.929Z,100378.59
2022-09-06T10:38:54.087Z,100373.81
2022-09-06T10:41:34.235Z,100368.91
2022-09-06T10:44:18.182Z,100376.00
2022-09-06T10:46:47.059Z,100370.84
2022-09-06T10:49:18.735Z,100360.41
2022-09-06T10:51:51.821Z,100362.81
2022-09-06T10:54:23.131Z,100354.84
2022-09-06T10:56:56.190Z,100363.53
2022-09-06T10:59:38.065Z,100363.81
2022-09-06T11:02:17.781Z,100364.19
2022-09-06T11:10:34.473Z,100352.81
2022-09-06T11:13:07.371Z,100344.97
2022-09-06T11:15:45.167Z,100348.50
2022-09-06T11:18:18.722Z,100345.13
2022-09-06T11:20:54.699Z,100335.19
2022-09-06T11:23:48.260Z,100336.22
2022-09-06T11:26:32.082Z,100335.75
2022-09-06T11:29:02.616Z,100339.16
2022-09-06T11:34:25.122Z,100331.19
2022-09-06T11:36:56.493Z,100328.78
2022-09-06T11:42:41.964Z,100328.59
2022-09-06T11:45:21.684Z,100306.38
2022-09-06T11:47:52.735Z,100314.50
2022-09-06T11:50:27.872Z,100314.13
2022-09-06T11:53:15.998Z,100313.41
2022-09-06T11:55:46.019Z,100304.16
2022-09-06T11:58:27.610Z,100303.22
2022-09-06T12:01:33.358Z,100306.34
2022-09-06T12:04:09.713Z,100306.16
2022-09-06T12:06:42.148Z,100289.50
2022-09-06T12:09:29.648Z,100291.78
2022-09-06T12:11:58.751Z,100292.09
2022-09-06T12:14:33.570Z,100287.13
2022-09-06T12:17:46.626Z,100281.03
2022-09-06T12:20:54.572Z,100284.84
2022-09-06T12:23:44.350Z,100274.91
2022-09-06T12:26:13.447Z,100276.72
2022-09-06T12:28:51.671Z,100272.66
2022-09-06T12:31:34.965Z,100275.50
2022-09-06T12:34:09.779Z,100260.34
2022-09-06T12:36:49.765Z,100256.13
2022-09-06T12:39:18.079Z,100268.91
2022-09-06T12:41:50.296Z,100260.81
2022-09-06T12:44:24.349Z,100257.22
2022-09-06T12:46:53.089Z,100250.94
2022-09-06T12:49:23.514Z,100245.97
2022-09-06T12:52:07.457Z,100248.25
2022-09-06T12:54:43.977Z,100238.81
2022-09-06T12:57:19.355Z,100228.34
2022-09-06T12:59:53.898Z,100240.41
2022-09-06T13:02:29.675Z,100232.41
2022-09-06T13:05:06.408Z,100229.59
2022-09-06T13:07:40.004Z,100235.25
2022-09-06T13:10:10.475Z,100226.19
2022-09-06T13:12:41.405Z,100220.34
2022-09-06T13:15:13.851Z,100212.56
2022-09-06T13:17:42.144Z,100210.91
2022-09-06T13:20:17.399Z,100212.06
2022-09-06T13:22:49.287Z,100207.31
2022-09-06T13:25:26.146Z,100200.19
2022-09-06T13:27:58.217Z,100211.09
2022-09-06T13:30:49.966Z,100209.28
2022-09-06T13:33:25.819Z,100205.97
2022-09-06T13:36:18.313Z,100189.66
2022-09-06T13:38:48.289Z,100199.13
2022-09-06T13:41:49.261Z,100191.19
2022-09-06T13:44:29.604Z,100184.69
2022-09-06T13:46:58.225Z,100190.69
2022-09-06T13:49:27.147Z,100191.09
2022-09-06T13:52:00.285Z,100197.13
2022-09-06T13:54:31.324Z,100184.84
2022-09-06T13:57:01.868Z,100189.31
2022-09-06T13:59:31.762Z,100185.56
2022-09-06T14:02:03.568Z,100185.69
2022-09-06T14:04:32.571Z,100187.09
2022-09-06T14:07:02.669Z,100179.22
2022-09-06T14:09:33.355Z,100166.34
2022-09-06T14:12:02.217Z,100162.28
2022-09-06T14:14:30.560Z,100162.78
2022-09-06T14:16:58.740Z,100158.28
2022-09-06T14:19:27.110Z,100166.56
2022-09-06T14:21:55.807Z,100156.56
2022-09-06T14:24:24.409Z,100158.78
2022-09-06T14:26:54.596Z,100149.88
2022-09-06T14:29:22.601Z,100166.53
2022-09-06T14:31:50.766Z,100162.88
2022-09-06T14:34:19.261Z,100155.88
2022-09-06T14:36:47.566Z,100147.56
2022-09-06T14:39:16.331Z,100145.09
2022-09-06T14:41:44.961Z,100144.31
2022-09-06T14:44:14.890Z,100147.00
2022-09-06T14:46:43.294Z,100149.09
2022-09-06T14:49:11.926Z,100146.25
2022-09-06T14:51:40.945Z,100144.41
2022-09-06T14:54:11.490Z,100136.53
2022-09-06T14:56:42.028Z,100139.63
2022-09-06T14:59:15.774Z,100134.88
2022-09-06T15:01:46.841Z,100130.31
2022-09-06T15:04:15.984Z,100126.41
2022-09-06T15:06:47.347Z,100132.13
2022-09-06T15:09:16.951Z,100131.50
2022-09-06T15:11:48.268Z,100138.50
2022-09-06T15:14:20.823Z,100143.13
2022-09-06T15:16:55.568Z,100136.75
2022-09-06T15:19:24.832Z,100150.13
2022-09-06T15:21:52.942Z,100141.41
2022-09-06T15:24:21.268Z,100142.88
2022-09-06T15:26:49.725Z,100148.59
2022-09-06T15:29:20.389Z,100143.75
2022-09-06T15:31:51.798Z,100132.78
2022-09-06T15:34:20.671Z,100149.56
2022-09-06T15:36:49.827Z,100153.09
2022-09-06T15:39:18.373Z,100166.53
2022-09-06T15:41:46.762Z,100163.47
2022-09-06T15:44:17.007Z,100157.72
2022-09-06T15:46:49.961Z,100148.91
2022-09-06T15:49:24.373Z,100141.66
2022-09-06T15:51:56.417Z,100139.25
2022-09-06T15:54:45.150Z,100144.47
2022-09-06T15:57:13.837Z,100141.06
2022-09-06T15:59:42.466Z,100134.13
2022-09-06T16:02:12.032Z,100130.38
2022-09-06T16:04:40.566Z,100115.03
2022-09-06T16:07:09.679Z,100113.72
2022-09-06T16:09:40.499Z,100121.34
2022-09-06T16:12:09.126Z,100127.75
2022-09-06T16:14:39.028Z,100119.72
2022-09-06T16:17:07.136Z,100121.63
2022-09-06T16:19:36.686Z,100118.59
2022-09-06T16:22:04.805Z,100121.34
2022-09-06T16:24:33.419Z,100117.13
2022-09-06T16:27:01.897Z,100111.94
2022-09-06T16:29:30.325Z,100101.78
2022-09-06T16:31:59.953Z,100100.25
2022-09-06T16:34:28.570Z,100096.47
2022-09-06T16:36:58.535Z,100094.78
2022-09-06T16:39:26.962Z,100100.66
2022-09-06T16:41:54.967Z,100105.22
2022-09-06T16:44:22.920Z,100113.28
2022-09-06T16:46:52.986Z,100109.00
2022-09-06T16:49:21.316Z,100113.69
2022-09-06T16:51:50.926Z,100117.56
2022-09-06T16:54:20.954Z,100119.06
2022-09-06T16:56:49.098Z,100113.91
2022-09-06T16:59:17.310Z,100121.31
2022-09-06T17:01:46.107Z,100123.34
2022-09-06T17:04:14.987Z,100134.75
2022-09-06T17:06:45.887Z,100125.78
2022-09-06T17:09:15.906Z,100129.13
2022-09-06T17:11:46.818Z,100132.81
2022-09-06T17:14:14.837Z,100138.72
2022-09-06T17:17:00.677Z,100137.91
2022-09-06T17:19:29.817Z,100143.50
2022-09-06T17:21:57.938Z,100139.81
2022-09-06T17:24:26.735Z,100149.00
2022-09-06T17:26:56.268Z,100140.19
2022-09-06T17:29:26.586Z,100153.50
2022-09-06T17:31:55.079Z,100159.28
2022-09-06T17:34:23.116Z,100162.25
2022-09-06T17:36:51.372Z,100161.44
2022-09-06T17:39:21.575Z,100164.09
2022-09-06T17:41:50.667Z,100163.25
2022-09-06T17:44:22.273Z,100160.09
2022-09-06T17:47:16.849Z,100164.59
2022-09-06T17:49:39.285Z,100163.19
2022-09-06T17:52:07.746Z,100154.53
2022-09-06T17:54:35.882Z,100158.16
2022-09-06T17:57:04.019Z,100161.66
2022-09-06T17:59:35.652Z,100154.91
2022-09-06T18:02:06.990Z,100157.09
2022-09-06T18:04:35.407Z,100150.34
2022-09-06T18:07:03.692Z,100142.75
2022-09-06T18:09:31.784Z,100150.72
2022-09-06T18:12:00.028Z,100151.34
2022-09-06T18:14:28.532Z,100151.22
2022-09-06T18:16:58.149Z,100151.09
2022-09-06T18:19:27.451Z,100155.97
2022-09-06T18:21:57.055Z,100152.09
2022-09-06T18:24:25.677Z,100152.22
2022-09-06T18:26:53.829Z,100158.56
2022-09-06T18:29:22.166Z,100153.63
2022-09-06T18:31:53.562Z,100151.31
2022-09-06T18:34:23.321Z,100157.19
2022-09-06T18:36:51.979Z,100157.28
2022-09-06T18:39:20.598Z,100154.63
2022-09-06T18:42:10.548Z,100161.16
2022-09-06T18:44:39.413Z,100168.78
2022-09-06T18:47:09.034Z,100172.72
2022-09-06T18:49:43.793Z,100169.22
2022-09-06T18:52:12.488Z,100170.56
2022-09-06T18:54:41.619Z,100174.72
2022-09-06T18:57:09.719Z,100172.91
2022-09-06T18:59:37.929Z,100181.72
2022-09-06T19:02:06.132Z,100167.69
2022-09-06T19:04:34.225Z,100170.13
2022-09-06T19:07:04.658Z,100172.78
2022-09-06T19:09:32.664Z,100164.09
2022-09-06T19:12:00.648Z,100162.28
2022-09-06T19:14:29.061Z,100165.75
2022-09-06T19:16:57.410Z,100159.84
2022-09-06T19:19:25.615Z,100157.09
2022-09-06T19:21:53.747Z,100156.56
2022-09-06T19:24:24.544Z,100152.63
2022-09-06T19:26:53.484Z,100141.63
2022-09-06T19:29:22.244Z,100136.19
2022-09-06T19:31:50.669Z,100146.69
2022-09-06T19:34:19.420Z,100142.19
2022-09-06T19:36:48.798Z,100138.09
2022-09-06T19:39:17.637Z,100139.47
2022-09-06T19:41:47.808Z,100136.31
2022-09-06T19:44:20.721Z,100146.34
2022-09-06T19:46:49.455Z,100140.66
2022-09-06T19:49:19.089Z,100134.22
2022-09-06T19:51:48.925Z,100118.03
2022-09-06T19:54:17.797Z,100112.44
2022-09-06T19:56:47.705Z,100110.50
2022-09-06T19:59:17.763Z,100103.53
2022-09-06T20:01:47.192Z,100098.06
2022-09-06T20:04:15.700Z,100099.53
2022-09-06T20:06:43.955Z,100100.13
2022-09-06T20:09:13.482Z,100093.69
2022-09-06T20:11:42.893Z,100080.00
2022-09-06T20:14:13.173Z,100086.19
2022-09-06T20:16:42.591Z,100070.25
2022-09-06T20:19:12.291Z,100076.69
2022-09-06T20:21:40.391Z,100077.81
2022-09-06T20:24:08.747Z,100081.31
2022-09-06T20:26:37.734Z,100089.38
2022-09-06T20:29:06.654Z,100087.28
2022-09-06T20:31:37.906Z,100079.78
2022-09-06T20:34:07.409Z,100085.63
2022-09-06T20:36:35.606Z,100084.78
2022-09-06T20:39:03.619Z,100088.16
2022-09-06T20:41:32.115Z,100087.44
2022-09-06T20:44:01.312Z,100079.47
2022-09-06T20:46:31.155Z,100098.97
2022-09-06T20:49:04.332Z,100099.34
2022-09-06T20:51:34.173Z,100095.56
2022-09-06T20:54:03.753Z,100086.38
2022-09-06T20:56:34.207Z,100090.53
2022-09-06T20:59:04.129Z,100095.31
2022-09-06T21:01:34.949Z,100088.94
2022-09-06T21:04:07.974Z,100089.03
2022-09-06T21:06:37.696Z,100082.63
2022-09-06T21:09:08.213Z,100079.53
2022-09-06T21:11:36.576Z,100075.13
2022-09-06T21:14:05.234Z,100066.38
2022-09-06T21:16:33.890Z,100069.38
2022-09-06T21:19:04.293Z,100070.34
2022-09-06T21:21:35.684Z,100062.75
2022-09-06T21:24:05.606Z,100066.34
2022-09-06T21:26:34.381Z,100058.88
2022-09-06T21:29:03.517Z,100062.25
2022-09-06T21:31:32.829Z,100070.13
2022-09-06T21:34:03.796Z,100070.94
2022-09-06T21:36:36.031Z,100077.94
2022-09-06T21:39:09.445Z,100087.53
2022-09-06T21:41:38.673Z,100091.97
2022-09-06T21:44:08.272Z,100091.22
2022-09-06T21:46:39.573Z,100091.88
2022-09-06T21:49:09.715Z,100087.72
2022-09-06T21:51:39.729Z,100085.25
2022-09-06T21:54:08.585Z,100090.72
2022-09-06T21:56:38.163Z,100089.41
2022-09-06T21:59:07.165Z,100096.19
2022-09-06T22:01:37.078Z,100088.94
2022-09-06T22:04:06.206Z,100094.63
2022-09-06T22:06:35.728Z,100091.22
2022-09-06T22:09:07.673Z,100088.78
2022-09-06T22:11:36.399Z,100088.31
2022-09-06T22:14:07.469Z,100089.03
2022-09-06T22:16:37.402Z,100087.28
2022-09-06T22:19:06.338Z,100080.13
2022-09-06T22:21:34.742Z,100077.19
2022-09-06T22:24:06.285Z,100079.44
2022-09-06T22:26:36.579Z,100071.25
2022-09-06T22:29:06.810Z,100062.66
2022-09-06T22:31:37.419Z,100049.69
2022-09-06T22:34:05.651Z,100050.34
2022-09-06T22:36:34.045Z,100044.59
2022-09-06T22:39:02.125Z,100048.59
2022-09-06T22:41:33.904Z,100058.81
2022-09-06T22:44:02.854Z,100060.13
2022-09-06T22:46:31.431Z,100063.06
2022-09-06T22:49:00.177Z,100050.84
2022-09-06T22:51:28.219Z,100047.41
2022-09-06T22:53:56.235Z,100038.84
2022-09-06T22:56:24.757Z,100038.25
2022-09-06T22:58:54.470Z,100031.84
2022-09-06T23:01:22.537Z,100031.31
2022-09-06T23:03:50.659Z,100031.53
2022-09-06T23:06:19.336Z,100041.69
2022-09-06T23:08:47.777Z,100034.09
2022-09-06T23:11:17.699Z,100041.72
2022-09-06T23:13:47.114Z,100038.31
2022-09-06T23:16:18.659Z,100033.03
2022-09-06T23:18:47.458Z,100038.44
2022-09-06T23:21:18.013Z,100045.78
2022-09-06T23:23:46.934Z,100049.28
2022-09-06T23:26:17.368Z,100048.03
2022-09-06T23:28:46.054Z,100051.75
2022-09-06T23:31:16.865Z,100047.00
2022-09-06T23:33:45.266Z,100046.28
2022-09-06T23:36:14.709Z,100046.03
2022-09-06T23:38:43.995Z,100041.03
2022-09-06T23:41:13.302Z,100055.81
2022-09-06T23:43:42.909Z,100053.13
2022-09-06T23:46:12.282Z,100048.66
2022-09-06T23:48:42.882Z,100053.16
2022-09-06T23:51:11.409Z,100053.78
2022-09-06T23:53:39.915Z,100054.34
2022-09-06T23:56:08.618Z,100055.03
2022-09-06T23:58:37.475Z,100059.69
